METAR Data
IDs: Format: Raw Decoded Include TAF

Data at: 1457 UTC 18 Aug 2019

METAR for:KIAH (Houston/Bush Intl, TX, US)
Text:KIAH 181453Z 19010KT 10SM FEW020 SCT034 SCT050 BKN250 31/26 A2993 RMK AO2 RAE1356 SLP133 P0000 60005 T03110256 51010 $
Temperature: 31.1°C ( 88°F)
Dewpoint: 25.6°C ( 78°F) [RH = 73%]
Pressure (altimeter):29.93 inches Hg (1013.6 mb) [Sea level pressure: 1013.3 mb]
Winds:from the S (190 degrees) at 12 MPH (10 knots; 5.1 m/s)
Visibility:10 or more sm (16+ km)
Ceiling:25000 feet AGL
Clouds: few clouds at 2000 feet AGL, scattered clouds at 3400 feet AGL, scattered clouds at 5000 feet AGL, broken clouds at 25000 feet AGL
QC Flag:SOME DATA ABOVE MAY BE INACCURATE!!!"$" is an indication the sensor requires maintenance.

METAR for:KHOU (Houston/Hobby Arpt, TX, US)
Text:KHOU 181453Z 20010KT 10SM SCT021 BKN037 BKN250 32/25 A2992 RMK AO2 SLP137 T03170250 51010
Temperature: 31.7°C ( 89°F)
Dewpoint: 25.0°C ( 77°F) [RH = 68%]
Pressure (altimeter):29.92 inches Hg (1013.3 mb) [Sea level pressure: 1013.7 mb]
Winds:from the SSW (200 degrees) at 12 MPH (10 knots; 5.1 m/s)
Visibility:10 or more sm (16+ km)
Ceiling:3700 feet AGL
Clouds: scattered clouds at 2100 feet AGL, broken clouds at 3700 feet AGL, broken clouds at 25000 feet AGL

METAR for:KGLS (Galveston/Scholes In, TX, US)
Text:KGLS 181452Z 19013KT 10SM FEW020 SCT025 SCT032 33/27 A2994 RMK AO2 SLP140 T03330267 51015
Temperature: 33.3°C ( 92°F)
Dewpoint: 26.7°C ( 80°F) [RH = 68%]
Pressure (altimeter):29.94 inches Hg (1014.0 mb) [Sea level pressure: 1014.0 mb]
Winds:from the S (190 degrees) at 15 MPH (13 knots; 6.7 m/s)
Visibility:10 or more sm (16+ km)
Ceiling:at least 12,000 feet AGL
Clouds: few clouds at 2000 feet AGL, scattered clouds at 2500 feet AGL, scattered clouds at 3200 feet AGL

METAR for:KLVJ (Houston/Pearland Rgn, TX, US)
Text:KLVJ 181453Z AUTO VRB04KT 10SM FEW023 32/25 A2994 RMK AO2 SLP137 T03170250 51011 $
Temperature: 31.7°C ( 89°F)
Dewpoint: 25.0°C ( 77°F) [RH = 68%]
Pressure (altimeter):29.94 inches Hg (1014.0 mb) [Sea level pressure: 1013.7 mb]
Winds:variable direction winds at 5 MPH (4 knots; 2.1 m/s)
Visibility:10 or more sm (16+ km)
Ceiling:at least 12,000 feet AGL
Clouds: few clouds at 2300 feet AGL
QC Flag:automated observation with no human augmentation; SOME DATA ABOVE MAY BE INACCURATE!!!"$" is an indication the sensor requires maintenance.

METAR for:KSGR (Houston/Sugar Land R, TX, US)
Text:KSGR 181453Z 21010KT 10SM FEW022 SCT028 31/26 A2992 RMK AO2 SLP133 T03110261 51010 $
Temperature: 31.1°C ( 88°F)
Dewpoint: 26.1°C ( 79°F) [RH = 75%]
Pressure (altimeter):29.92 inches Hg (1013.3 mb) [Sea level pressure: 1013.3 mb]
Winds:from the SSW (210 degrees) at 12 MPH (10 knots; 5.1 m/s)
Visibility:10 or more sm (16+ km)
Ceiling:at least 12,000 feet AGL
Clouds: few clouds at 2200 feet AGL, scattered clouds at 2800 feet AGL
QC Flag:SOME DATA ABOVE MAY BE INACCURATE!!!"$" is an indication the sensor requires maintenance.

METAR for:KDWH (Houston/Hooks Mem, TX, US)
Text:KDWH 181453Z 19011G16KT 10SM SCT023 BKN030 BKN038 31/25 A2993 RMK AO2 SLP133 T03110250 51009
Temperature: 31.1°C ( 88°F)
Dewpoint: 25.0°C ( 77°F) [RH = 70%]
Pressure (altimeter):29.93 inches Hg (1013.6 mb) [Sea level pressure: 1013.3 mb]
Winds:from the S (190 degrees) at 13 MPH (11 knots; 5.7 m/s) gusting to 18 MPH (16 knots; 8.2 m/s)
Visibility:10 or more sm (16+ km)
Ceiling:3000 feet AGL
Clouds: scattered clouds at 2300 feet AGL, broken clouds at 3000 feet AGL, broken clouds at 3800 feet AGL

METAR for:KCLL (College Station/East, TX, US)
Text:KCLL 181453Z 21011KT 10SM FEW018 SCT025 BKN034 31/25 A2992 RMK AO2 SLP126 T03060250 51007
Temperature: 30.6°C ( 87°F)
Dewpoint: 25.0°C ( 77°F) [RH = 72%]
Pressure (altimeter):29.92 inches Hg (1013.3 mb) [Sea level pressure: 1012.6 mb]
Winds:from the SSW (210 degrees) at 13 MPH (11 knots; 5.7 m/s)
Visibility:10 or more sm (16+ km)
Ceiling:3400 feet AGL
Clouds: few clouds at 1800 feet AGL, scattered clouds at 2500 feet AGL, broken clouds at 3400 feet AGL

METAR for:KUTS (Huntsville Muni, TX, US)
Text:KUTS 181453Z AUTO 18011G17KT 10SM BKN022 BKN028 32/24 A2994 RMK AO2 SLP131 T03170244 51008
Temperature: 31.7°C ( 89°F)
Dewpoint: 24.4°C ( 76°F) [RH = 65%]
Pressure (altimeter):29.94 inches Hg (1014.0 mb) [Sea level pressure: 1013.1 mb]
Winds:from the S (180 degrees) at 13 MPH (11 knots; 5.7 m/s) gusting to 20 MPH (17 knots; 8.7 m/s)
Visibility:10 or more sm (16+ km)
Ceiling:2200 feet AGL
Clouds: broken clouds at 2200 feet AGL, broken clouds at 2800 feet AGL
QC Flag:automated observation with no human augmentation

METAR for:KCXO (Conroe/Executive Arp, TX, US)
Text:KCXO 181453Z 19005KT 10SM FEW021 SCT029 30/26 A2994 RMK AO2 SLP136 T03000256 51011
Temperature: 30.0°C ( 86°F)
Dewpoint: 25.6°C ( 78°F) [RH = 77%]
Pressure (altimeter):29.94 inches Hg (1014.0 mb) [Sea level pressure: 1013.6 mb]
Winds:from the S (190 degrees) at 6 MPH (5 knots; 2.6 m/s)
Visibility:10 or more sm (16+ km)
Ceiling:at least 12,000 feet AGL
Clouds: few clouds at 2100 feet AGL, scattered clouds at 2900 feet AGL

METAR for:KLBX (Angleton/Texas Gulf, TX, US)
Text:KLBX 181453Z AUTO 18015KT 10SM CLR 32/25 A2992 RMK AO2 SLP132 T03220250 51010
Temperature: 32.2°C ( 90°F)
Dewpoint: 25.0°C ( 77°F) [RH = 66%]
Pressure (altimeter):29.92 inches Hg (1013.3 mb) [Sea level pressure: 1013.2 mb]
Winds:from the S (180 degrees) at 17 MPH (15 knots; 7.7 m/s)
Visibility:10 or more sm (16+ km)
Ceiling:at least 12,000 feet AGL
Clouds:sky clear below 12,000 feet AGL
QC Flag:automated observation with no human augmentation

METAR for:KPSX (Palacios Muni, TX, US)
Text:KPSX 181453Z AUTO 21009G19KT 1 1/4SM +TSRA FEW013 BKN033 OVC050 27/24 A2992 RMK AO2 PK WND 20028/1434 LTG DSNT NE RAE16B34 TSB41 SLP131 P0036 60036 T02720244 53013
Temperature: 27.2°C ( 81°F)
Dewpoint: 24.4°C ( 76°F) [RH = 85%]
Pressure (altimeter):29.92 inches Hg (1013.3 mb) [Sea level pressure: 1013.1 mb]
Winds:from the SSW (210 degrees) at 10 MPH (9 knots; 4.6 m/s) gusting to 22 MPH (19 knots; 9.8 m/s)
Visibility: 1.25 sm ( 2.01 km)
Ceiling:3300 feet AGL
Clouds: few clouds at 1300 feet AGL, broken clouds at 3300 feet AGL, overcast cloud deck at 5000 feet AGL
Weather:+TSRA (heavy rain associated with thunderstorm(s))
QC Flag:automated observation with no human augmentation